createdAt,value
2018-12-17T00:01:07.014Z,98362.72
2018-12-17T00:03:17.930Z,98362.72
2018-12-17T00:05:30.519Z,98367.41
2018-12-17T00:07:41.565Z,98368.73
2018-12-17T00:09:52.478Z,98371.56
2018-12-17T00:12:03.348Z,98372.83
2018-12-17T00:14:14.208Z,98373.20
2018-12-17T00:16:25.141Z,98376.16
2018-12-17T00:18:36.018Z,98378.17
2018-12-17T00:20:46.852Z,98381.05
2018-12-17T00:22:57.701Z,98376.56
2018-12-17T00:25:08.528Z,98373.77
2018-12-17T00:27:19.372Z,98382.08
2018-12-17T00:29:31.181Z,98381.33
2018-12-17T00:31:42.068Z,98382.33
2018-12-17T00:33:52.936Z,98377.28
2018-12-17T00:36:03.757Z,98379.89
2018-12-17T00:38:14.613Z,98380.34
2018-12-17T00:40:25.633Z,98375.78
2018-12-17T00:42:37.315Z,98384.48
2018-12-17T00:44:48.284Z,98382.55
2018-12-17T00:46:59.099Z,98381.08
2018-12-17T00:49:09.944Z,98382.97
2018-12-17T00:51:21.226Z,98383.52
2018-12-17T00:53:32.126Z,98388.30
2018-12-17T00:55:43.060Z,98385.95
2018-12-17T00:57:53.937Z,98383.02
2018-12-17T01:00:11.794Z,98382.23
2018-12-17T01:02:22.698Z,98381.84
2018-12-17T01:04:33.547Z,98388.23
2018-12-17T01:06:44.418Z,98389.07
2018-12-17T01:08:55.264Z,98390.78
2018-12-17T01:11:06.108Z,98394.98
2018-12-17T01:13:16.948Z,98390.74
2018-12-17T01:15:28.031Z,98393.75
2018-12-17T01:17:38.868Z,98396.86
2018-12-17T01:19:49.746Z,98397.73
2018-12-17T01:22:00.639Z,98400.80
2018-12-17T01:24:11.480Z,98404.34
2018-12-17T01:26:22.759Z,98416.11
2018-12-17T01:28:34.104Z,98410.44
2018-12-17T01:30:44.976Z,98409.99
2018-12-17T01:32:56.069Z,98412.86
2018-12-17T01:35:06.940Z,98414.13
2018-12-17T01:37:17.785Z,98415.75
2018-12-17T01:39:28.652Z,98421.17
2018-12-17T01:41:39.561Z,98421.61
2018-12-17T01:43:50.431Z,98425.06
2018-12-17T01:46:01.304Z,98425.59
2018-12-17T01:48:12.158Z,98432.02
2018-12-17T01:50:23.021Z,98431.19
2018-12-17T01:52:33.860Z,98428.73
2018-12-17T01:54:44.692Z,98441.56
2018-12-17T01:56:55.537Z,98446.67
2018-12-17T01:59:06.383Z,98447.55
2018-12-17T02:01:17.236Z,98446.67
2018-12-17T02:03:28.050Z,98447.59
2018-12-17T02:05:38.937Z,98448.44
2018-12-17T02:07:49.756Z,98445.04
2018-12-17T02:10:00.604Z,98444.99
2018-12-17T02:12:11.466Z,98442.73
2018-12-17T02:14:22.400Z,98448.55
2018-12-17T02:16:33.264Z,98449.00
2018-12-17T02:18:44.396Z,98446.83
2018-12-17T02:20:55.241Z,98452.39
2018-12-17T02:23:06.089Z,98460.98
2018-12-17T02:25:16.956Z,98464.47
2018-12-17T02:27:27.821Z,98461.62
2018-12-17T02:29:38.730Z,98462.49
2018-12-17T02:31:49.576Z,98462.09
2018-12-17T02:34:00.463Z,98465.50
2018-12-17T02:36:11.294Z,98463.86
2018-12-17T02:38:22.189Z,98470.34
2018-12-17T02:40:33.086Z,98475.05
2018-12-17T02:42:44.067Z,98471.67
2018-12-17T02:44:54.933Z,98473.86
2018-12-17T02:47:05.801Z,98478.58
2018-12-17T02:49:16.858Z,98480.73
2018-12-17T02:51:27.728Z,98487.61
2018-12-17T02:53:38.568Z,98491.48
2018-12-17T02:55:49.400Z,98491.95
2018-12-17T02:58:00.272Z,98488.61
2018-12-17T03:00:11.148Z,98485.80
2018-12-17T03:02:21.996Z,98489.63
2018-12-17T03:04:32.909Z,98490.88
2018-12-17T03:06:43.746Z,98495.94
2018-12-17T03:08:54.613Z,98494.59
2018-12-17T03:11:05.436Z,98494.95
2018-12-17T03:13:16.304Z,98500.09
2018-12-17T03:15:27.137Z,98497.55
2018-12-17T03:17:37.968Z,98499.22
2018-12-17T03:19:48.865Z,98499.18
2018-12-17T03:21:59.699Z,98499.53
2018-12-17T03:24:10.538Z,98500.38
2018-12-17T03:26:21.384Z,98502.53
2018-12-17T03:28:32.227Z,98502.49
2018-12-17T03:30:43.074Z,98505.02
2018-12-17T03:32:53.889Z,98506.69
2018-12-17T03:35:04.994Z,98506.24
2018-12-17T03:37:15.921Z,98504.48
2018-12-17T03:39:26.771Z,98516.78
2018-12-17T03:41:37.626Z,98513.31
2018-12-17T03:43:48.464Z,98514.70
2018-12-17T03:46:00.179Z,98517.74
2018-12-17T03:48:11.173Z,98523.73
2018-12-17T03:50:22.060Z,98517.31
2018-12-17T03:52:32.905Z,98524.45
2018-12-17T03:54:43.750Z,98529.05
2018-12-17T03:56:54.597Z,98533.23
2018-12-17T03:59:05.505Z,98533.55
2018-12-17T04:01:16.421Z,98533.02
2018-12-17T04:03:27.245Z,98540.56
2018-12-17T04:05:38.111Z,98543.07
2018-12-17T04:07:48.953Z,98538.32
2018-12-17T04:09:59.829Z,98537.39
2018-12-17T04:12:10.692Z,98544.17
2018-12-17T04:14:21.517Z,98536.51
2018-12-17T04:16:32.557Z,98542.46
2018-12-17T04:18:43.448Z,98542.02
2018-12-17T04:20:54.354Z,98545.06
2018-12-17T04:23:05.257Z,98548.50
2018-12-17T04:25:16.093Z,98554.49
2018-12-17T04:27:26.977Z,98558.34
2018-12-17T04:29:37.837Z,98555.77
2018-12-17T04:31:48.713Z,98561.24
2018-12-17T04:33:59.524Z,98549.20
2018-12-17T04:36:10.359Z,98548.72
2018-12-17T04:38:21.344Z,98555.86
2018-12-17T04:40:32.192Z,98560.54
2018-12-17T04:42:43.060Z,98561.82
2018-12-17T04:44:53.925Z,98567.02
2018-12-17T04:47:05.767Z,98569.18
2018-12-17T04:49:16.625Z,98573.02
2018-12-17T04:51:27.891Z,98572.62
2018-12-17T04:53:38.759Z,98576.45
2018-12-17T04:55:49.705Z,98576.91
2018-12-17T04:58:01.012Z,98578.58
2018-12-17T05:00:11.949Z,98586.56
2018-12-17T05:02:23.214Z,98592.47
2018-12-17T05:04:34.147Z,98589.87
2018-12-17T05:06:45.092Z,98597.11
2018-12-17T05:08:55.931Z,98597.98
2018-12-17T05:11:06.900Z,98604.33
2018-12-17T05:13:17.716Z,98612.81
2018-12-17T05:15:28.680Z,98623.88
2018-12-17T05:17:39.506Z,98628.55
2018-12-17T05:19:50.360Z,98627.75
2018-12-17T05:22:01.200Z,98630.28
2018-12-17T05:24:12.128Z,98636.72
2018-12-17T05:26:22.949Z,98634.56
2018-12-17T05:28:33.765Z,98634.95
2018-12-17T05:30:44.604Z,98635.00
2018-12-17T05:32:55.433Z,98649.11
2018-12-17T05:35:06.527Z,98642.80
2018-12-17T05:37:17.374Z,98647.12
2018-12-17T05:39:28.236Z,98650.52
2018-12-17T05:41:39.078Z,98650.20
2018-12-17T05:43:49.936Z,98654.16
2018-12-17T05:46:01.326Z,98652.45
2018-12-17T05:48:12.149Z,98655.44
2018-12-17T05:50:22.983Z,98658.08
2018-12-17T05:52:33.837Z,98664.11
2018-12-17T05:54:44.709Z,98668.78
2018-12-17T05:56:55.567Z,98671.78
2018-12-17T05:59:06.398Z,98672.14
2018-12-17T06:01:17.328Z,98670.82
2018-12-17T06:03:28.164Z,98676.73
2018-12-17T06:05:39.022Z,98685.18
2018-12-17T06:07:49.845Z,98685.98
2018-12-17T06:10:00.847Z,98687.22
2018-12-17T06:12:11.834Z,98690.57
2018-12-17T06:14:22.653Z,98690.97
2018-12-17T06:16:33.584Z,98702.84
2018-12-17T06:18:44.556Z,98705.45
2018-12-17T06:20:55.714Z,98711.84
2018-12-17T06:23:06.569Z,98712.72
2018-12-17T06:25:17.618Z,98713.16
2018-12-17T06:27:28.498Z,98722.20
2018-12-17T06:29:39.335Z,98727.31
2018-12-17T06:31:50.210Z,98730.34
2018-12-17T06:34:01.041Z,98729.06
2018-12-17T06:36:11.874Z,98738.05
2018-12-17T06:38:22.726Z,98736.77
2018-12-17T06:40:33.668Z,98740.17
2018-12-17T06:42:44.514Z,98741.81
2018-12-17T06:44:55.371Z,98745.18
2018-12-17T06:47:06.236Z,98747.30
2018-12-17T06:49:17.275Z,98744.27
2018-12-17T06:51:28.350Z,98750.22
2018-12-17T06:53:39.237Z,98750.66
2018-12-17T06:55:50.072Z,98749.34
2018-12-17T06:58:01.353Z,98746.40
2018-12-17T07:00:12.328Z,98748.14
2018-12-17T07:02:23.396Z,98748.25
2018-12-17T07:04:34.216Z,98748.12
2018-12-17T07:06:45.103Z,98747.14
2018-12-17T07:08:55.957Z,98747.93
2018-12-17T07:11:07.636Z,98753.86
2018-12-17T07:13:18.485Z,98757.48
2018-12-17T07:15:29.305Z,98768.73
2018-12-17T07:17:40.229Z,98772.27
2018-12-17T07:19:51.077Z,98772.78
2018-12-17T07:22:01.923Z,98771.15
2018-12-17T07:24:12.805Z,98770.78
2018-12-17T07:26:23.757Z,98773.86
2018-12-17T07:28:34.633Z,98779.42
2018-12-17T07:30:45.462Z,98790.06
2018-12-17T07:32:56.333Z,98790.50
2018-12-17T07:35:07.417Z,98799.89
2018-12-17T07:37:18.319Z,98806.73
2018-12-17T07:39:31.225Z,98812.25
2018-12-17T07:41:42.074Z,98818.18
2018-12-17T07:43:53.225Z,98828.48
2018-12-17T07:46:04.107Z,98840.81
2018-12-17T07:48:14.972Z,98848.53
2018-12-17T07:50:25.819Z,98847.28
2018-12-17T07:52:36.640Z,98848.66
2018-12-17T07:54:47.502Z,98856.44
2018-12-17T07:56:58.371Z,98853.48
2018-12-17T07:59:09.220Z,98860.28
2018-12-17T08:01:20.180Z,98867.86
2018-12-17T08:03:31.040Z,98861.83
2018-12-17T08:05:41.873Z,98866.81
2018-12-17T08:07:52.768Z,98872.73
2018-12-17T08:10:04.965Z,98878.26
2018-12-17T08:12:15.821Z,98877.75
2018-12-17T08:14:26.695Z,98882.94
2018-12-17T08:16:37.517Z,98889.81
2018-12-17T08:18:49.833Z,98893.34
2018-12-17T08:21:00.897Z,98899.28
2018-12-17T08:23:11.822Z,98904.77
2018-12-17T08:25:22.664Z,98908.06
2018-12-17T08:27:33.502Z,98899.03
2018-12-17T08:29:44.337Z,98900.24
2018-12-17T08:31:55.303Z,98898.09
2018-12-17T08:34:06.162Z,98909.47
2018-12-17T08:36:17.021Z,98904.27
2018-12-17T08:38:27.881Z,98900.02
2018-12-17T08:40:38.850Z,98903.91
2018-12-17T08:42:49.694Z,98903.91
2018-12-17T08:45:00.653Z,98906.03
2018-12-17T08:47:11.497Z,98904.37
2018-12-17T08:49:22.314Z,98904.02
2018-12-17T08:51:33.239Z,98906.98
2018-12-17T08:53:44.101Z,98906.58
2018-12-17T08:55:54.947Z,98918.42
2018-12-17T08:58:05.878Z,98920.44
2018-12-17T09:00:16.741Z,98920.73
2018-12-17T09:02:27.661Z,98925.34
2018-12-17T09:04:38.503Z,98929.06
2018-12-17T09:06:49.372Z,98929.75
2018-12-17T09:09:00.681Z,98934.17
2018-12-17T09:11:11.535Z,98926.36
2018-12-17T09:13:22.500Z,98933.09
2018-12-17T09:15:33.350Z,98933.97
2018-12-17T09:17:44.199Z,98938.69
2018-12-17T09:19:55.037Z,98939.30
2018-12-17T09:22:05.980Z,98941.53
2018-12-17T09:24:16.832Z,98942.88
2018-12-17T09:26:27.665Z,98936.38
2018-12-17T09:28:38.518Z,98941.16
2018-12-17T09:30:49.351Z,98945.62
2018-12-17T09:33:00.294Z,98944.53
2018-12-17T09:35:11.136Z,98950.33
2018-12-17T09:37:21.992Z,98956.77
2018-12-17T09:39:32.861Z,98955.64
2018-12-17T09:41:43.688Z,98963.42
2018-12-17T09:43:54.562Z,98962.02
2018-12-17T09:46:05.436Z,98964.74
2018-12-17T09:48:16.297Z,98969.19
2018-12-17T09:50:27.122Z,98966.61
2018-12-17T09:52:37.958Z,98967.24
2018-12-17T09:54:48.842Z,98968.84
2018-12-17T09:56:59.665Z,98968.12
2018-12-17T09:59:10.510Z,98971.32
2018-12-17T10:01:21.358Z,98974.06
2018-12-17T10:03:32.180Z,98968.81
2018-12-17T10:05:43.022Z,98965.69
2018-12-17T10:07:53.870Z,98967.59
2018-12-17T10:10:05.256Z,98965.13
2018-12-17T10:12:16.072Z,98958.00
2018-12-17T10:14:26.943Z,98959.13
2018-12-17T10:16:37.883Z,98959.86
2018-12-17T10:18:48.733Z,98961.91
2018-12-17T10:20:59.572Z,98959.64
2018-12-17T10:23:10.389Z,98965.86
2018-12-17T10:25:21.249Z,98961.38
2018-12-17T10:27:32.185Z,98955.97
2018-12-17T10:29:43.028Z,98950.00
2018-12-17T10:31:53.937Z,98951.87
2018-12-17T10:34:04.777Z,98952.60
2018-12-17T10:36:15.758Z,98947.53
2018-12-17T10:38:26.616Z,98947.02
2018-12-17T10:40:38.194Z,98950.39
2018-12-17T10:42:49.037Z,98947.70
2018-12-17T10:44:59.880Z,98960.78
2018-12-17T10:47:10.749Z,98957.96
2018-12-17T10:49:21.604Z,98957.37
2018-12-17T10:51:32.459Z,98955.80
2018-12-17T10:53:43.298Z,98953.73
2018-12-17T10:55:54.162Z,98957.84
2018-12-17T10:58:05.032Z,98958.30
2018-12-17T11:03:09.875Z,98942.84
2018-12-17T11:05:20.938Z,98940.53
2018-12-17T11:07:32.090Z,98943.86
2018-12-17T11:09:43.096Z,98938.52
2018-12-17T11:11:54.221Z,98929.38
2018-12-17T11:14:05.217Z,98928.57
2018-12-17T11:16:16.279Z,98939.27
2018-12-17T11:18:27.435Z,98953.11
2018-12-17T11:20:38.491Z,98941.84
2018-12-17T11:22:49.666Z,98943.95
2018-12-17T11:25:00.819Z,98949.95
2018-12-17T11:27:11.921Z,98943.89
2018-12-17T11:29:23.066Z,98946.13
2018-12-17T11:31:34.059Z,98941.73
2018-12-17T11:33:45.193Z,98941.14
2018-12-17T11:35:56.348Z,98936.89
2018-12-17T11:38:07.351Z,98927.86
2018-12-17T11:40:18.337Z,98936.44
2018-12-17T11:42:29.329Z,98932.09
2018-12-17T11:44:40.513Z,98932.79
2018-12-17T11:46:51.546Z,98935.06
2018-12-17T11:49:02.780Z,98933.86
2018-12-17T11:51:13.933Z,98929.62
2018-12-17T11:53:25.014Z,98934.98
2018-12-17T11:55:36.302Z,98933.99
2018-12-17T11:58:06.234Z,98937.77
2018-12-17T12:00:17.618Z,98939.45
2018-12-17T12:02:28.657Z,98946.71
2018-12-17T12:04:39.743Z,98941.10
2018-12-17T12:06:50.906Z,98945.75
2018-12-17T12:09:02.347Z,98943.09
2018-12-17T12:11:13.344Z,98944.44
2018-12-17T12:13:24.454Z,98949.50
2018-12-17T12:15:35.654Z,98942.61
2018-12-17T12:17:47.870Z,98941.68
2018-12-17T12:19:58.903Z,98949.30
2018-12-17T12:22:09.981Z,98953.08
2018-12-17T12:24:21.208Z,98955.96
2018-12-17T12:28:56.350Z,98958.66
2018-12-17T12:31:07.412Z,98959.50
2018-12-17T12:33:18.619Z,98957.45
2018-12-17T12:35:29.876Z,98960.91
2018-12-17T12:37:40.938Z,98960.88
2018-12-17T12:39:52.042Z,98957.45
2018-12-17T12:42:03.186Z,98966.42
2018-12-17T12:44:14.209Z,98972.42
2018-12-17T12:46:25.281Z,98974.38
2018-12-17T12:48:36.342Z,98973.84
2018-12-17T12:50:47.404Z,98974.59
2018-12-17T12:52:58.465Z,98979.72
2018-12-17T12:55:09.609Z,98976.09
2018-12-17T12:57:20.656Z,98983.38
2018-12-17T12:59:31.741Z,98987.77
2018-12-17T13:01:42.802Z,98995.08
2018-12-17T13:03:53.992Z,98996.82
2018-12-17T13:06:05.135Z,99005.01
2018-12-17T13:08:16.212Z,99008.04
2018-12-17T13:10:27.261Z,99013.47
2018-12-17T13:12:38.363Z,99015.23
2018-12-17T13:14:49.297Z,99012.17
2018-12-17T13:17:02.481Z,99016.72
2018-12-17T13:19:13.624Z,99013.83
2018-12-17T13:21:24.700Z,99018.23
2018-12-17T13:23:35.846Z,99021.72
2018-12-17T13:25:48.256Z,99025.16
2018-12-17T13:27:59.213Z,99031.13
2018-12-17T13:30:10.384Z,99032.42
2018-12-17T13:32:21.542Z,99029.02
2018-12-17T13:34:32.730Z,99031.61
2018-12-17T13:36:43.738Z,99030.31
2018-12-17T13:38:54.889Z,99031.66
2018-12-17T13:41:05.876Z,99032.19
2018-12-17T13:43:17.135Z,99038.25
2018-12-17T13:45:28.225Z,99042.67
2018-12-17T13:47:39.308Z,99048.28
2018-12-17T13:49:50.421Z,99056.15
2018-12-17T13:52:07.522Z,99057.02
2018-12-17T13:54:18.660Z,99062.67
2018-12-17T13:56:29.613Z,99063.67
2018-12-17T13:58:40.680Z,99068.12
2018-12-17T14:00:51.729Z,99064.28
2018-12-17T14:03:02.751Z,99068.56
2018-12-17T14:05:13.779Z,99075.02
2018-12-17T14:07:24.773Z,99079.34
2018-12-17T14:09:37.771Z,99080.19
2018-12-17T14:11:48.802Z,99092.31
2018-12-17T14:14:00.004Z,99092.81
2018-12-17T14:16:14.344Z,99100.56
2018-12-17T14:18:31.277Z,99107.84
2018-12-17T14:20:48.385Z,99110.03
2018-12-17T14:22:59.315Z,99114.42
2018-12-17T14:25:10.308Z,99116.23
2018-12-17T14:27:21.268Z,99114.19
2018-12-17T14:29:32.407Z,99119.81
2018-12-17T14:31:43.462Z,99123.36
2018-12-17T14:33:54.511Z,99128.11
2018-12-17T14:36:08.564Z,99131.08
2018-12-17T14:38:19.481Z,99141.86
2018-12-17T14:40:31.009Z,99146.16
2018-12-17T14:42:42.089Z,99152.66
2018-12-17T14:44:53.173Z,99156.13
2018-12-17T14:47:04.283Z,99163.08
2018-12-17T14:49:15.237Z,99164.44
2018-12-17T14:51:26.210Z,99167.03
2018-12-17T14:53:37.372Z,99175.20
2018-12-17T14:55:48.406Z,99182.09
2018-12-17T14:57:59.457Z,99174.77
2018-12-17T15:00:10.962Z,99182.70
2018-12-17T15:02:21.925Z,99182.35
2018-12-17T15:04:32.889Z,99184.17
2018-12-17T15:06:43.859Z,99189.72
2018-12-17T15:08:54.811Z,99198.46
2018-12-17T15:11:05.825Z,99209.06
2018-12-17T15:13:17.065Z,99209.92
2018-12-17T15:15:28.166Z,99214.77
2018-12-17T15:17:39.301Z,99218.95
2018-12-17T15:19:50.654Z,99230.23
2018-12-17T15:22:01.704Z,99230.23
2018-12-17T15:24:12.802Z,99236.19
2018-12-17T15:26:23.983Z,99239.56
2018-12-17T15:28:35.130Z,99247.91
2018-12-17T15:30:46.256Z,99249.38
2018-12-17T15:32:57.424Z,99249.46
2018-12-17T15:35:08.540Z,99250.48
2018-12-17T15:37:19.549Z,99256.16
2018-12-17T15:39:30.593Z,99257.13
2018-12-17T15:41:41.593Z,99263.58
2018-12-17T15:43:52.794Z,99265.94
2018-12-17T15:46:03.901Z,99266.87
2018-12-17T15:48:14.913Z,99266.97
2018-12-17T15:50:25.908Z,99269.63
2018-12-17T15:52:36.921Z,99267.58
2018-12-17T15:54:47.963Z,99272.34
2018-12-17T15:56:59.129Z,99273.68
2018-12-17T15:59:10.633Z,99276.26
2018-12-17T16:01:21.634Z,99276.26
2018-12-17T16:03:33.092Z,99270.85
2018-12-17T16:05:44.087Z,99277.63
2018-12-17T16:07:55.134Z,99275.16
2018-12-17T16:10:06.380Z,99282.22
2018-12-17T16:12:17.431Z,99275.52
2018-12-17T16:14:28.499Z,99270.03
2018-12-17T16:16:39.666Z,99272.31
2018-12-17T16:18:50.676Z,99275.74
2018-12-17T16:21:01.648Z,99273.16
2018-12-17T16:23:12.717Z,99272.75
2018-12-17T16:25:23.713Z,99272.81
2018-12-17T16:27:34.736Z,99271.97
2018-12-17T16:29:45.862Z,99266.39
2018-12-17T16:31:57.465Z,99273.21
2018-12-17T16:34:08.895Z,99274.00
2018-12-17T16:36:19.821Z,99280.38
2018-12-17T16:38:30.783Z,99286.31
2018-12-17T16:40:41.994Z,99291.51
2018-12-17T16:42:53.156Z,99280.38
2018-12-17T16:45:05.830Z,99280.36
2018-12-17T16:47:16.904Z,99285.06
2018-12-17T16:49:27.966Z,99291.11
2018-12-17T16:51:39.056Z,99294.03
2018-12-17T16:53:50.082Z,99290.95
2018-12-17T16:56:01.196Z,99290.94
2018-12-17T16:58:12.275Z,99293.96
2018-12-17T17:00:23.363Z,99292.24
2018-12-17T17:02:38.420Z,99302.98
2018-12-17T17:04:49.416Z,99307.17
2018-12-17T17:07:00.526Z,99313.28
2018-12-17T17:09:11.654Z,99322.70
2018-12-17T17:11:22.735Z,99322.71
2018-12-17T17:13:33.753Z,99325.78
2018-12-17T17:15:45.049Z,99329.59
2018-12-17T17:17:56.033Z,99328.31
2018-12-17T17:20:07.162Z,99329.87
2018-12-17T17:22:18.323Z,99324.17
2018-12-17T17:24:29.457Z,99322.58
2018-12-17T17:26:40.615Z,99326.33
2018-12-17T17:28:51.724Z,99329.09
2018-12-17T17:31:02.910Z,99330.20
2018-12-17T17:33:13.965Z,99340.77
2018-12-17T17:35:24.978Z,99334.88
2018-12-17T17:37:36.103Z,99347.31
2018-12-17T17:39:47.374Z,99345.37
2018-12-17T17:41:58.449Z,99349.33
2018-12-17T17:44:09.643Z,99349.95
2018-12-17T17:46:20.696Z,99356.59
2018-12-17T17:48:31.830Z,99363.16
2018-12-17T17:50:42.868Z,99365.86
2018-12-17T17:52:53.897Z,99367.59
2018-12-17T17:55:05.186Z,99371.56
2018-12-17T17:57:16.313Z,99372.47
2018-12-17T17:59:27.438Z,99373.82
2018-12-17T18:01:38.630Z,99374.76
2018-12-17T18:03:49.791Z,99376.05
2018-12-17T18:06:00.870Z,99380.43
2018-12-17T18:08:11.874Z,99378.28
2018-12-17T18:10:22.954Z,99384.33
2018-12-17T18:12:33.919Z,99381.75
2018-12-17T18:14:45.046Z,99383.92
2018-12-17T18:16:56.127Z,99384.81
2018-12-17T18:19:07.132Z,99389.19
2018-12-17T18:21:18.182Z,99397.80
2018-12-17T18:23:29.337Z,99398.21
2018-12-17T18:25:40.416Z,99397.07
2018-12-17T18:27:51.628Z,99411.25
2018-12-17T18:30:04.337Z,99412.04
2018-12-17T18:32:15.536Z,99413.31
2018-12-17T18:34:26.658Z,99410.35
2018-12-17T18:36:37.802Z,99408.32
2018-12-17T18:38:49.168Z,99417.68
2018-12-17T18:41:00.170Z,99413.77
2018-12-17T18:43:11.210Z,99418.03
2018-12-17T18:45:22.267Z,99426.70
2018-12-17T18:47:33.540Z,99427.05
2018-12-17T18:49:44.569Z,99424.08
2018-12-17T18:51:55.699Z,99427.64
2018-12-17T18:54:06.757Z,99438.80
2018-12-17T18:56:17.898Z,99434.83
2018-12-17T18:58:28.851Z,99446.36
2018-12-17T19:00:40.006Z,99445.92
2018-12-17T19:02:51.076Z,99451.12
2018-12-17T19:05:02.653Z,99464.00
2018-12-17T19:07:13.798Z,99462.27
2018-12-17T19:09:24.923Z,99460.99
2018-12-17T19:11:36.129Z,99465.69
2018-12-17T19:13:47.269Z,99460.59
2018-12-17T19:15:58.524Z,99466.63
2018-12-17T19:18:09.706Z,99462.81
2018-12-17T19:20:20.758Z,99468.72
2018-12-17T19:22:31.833Z,99467.93
2018-12-17T19:24:42.991Z,99467.18
2018-12-17T19:26:54.623Z,99475.35
2018-12-17T19:29:05.717Z,99477.93
2018-12-17T19:31:16.827Z,99481.36
2018-12-17T19:33:27.936Z,99484.37
2018-12-17T19:35:39.022Z,99477.93
2018-12-17T19:37:50.097Z,99480.02
2018-12-17T19:40:01.240Z,99480.95
2018-12-17T19:42:12.294Z,99489.92
2018-12-17T19:44:23.482Z,99486.05
2018-12-17T19:46:36.263Z,99486.50
2018-12-17T19:48:47.466Z,99481.36
2018-12-17T19:50:58.767Z,99487.05
2018-12-17T19:53:09.923Z,99492.55
2018-12-17T19:55:21.481Z,99489.57
2018-12-17T19:57:32.561Z,99493.44
2018-12-17T19:59:43.711Z,99495.12
2018-12-17T20:01:54.685Z,99494.73
2018-12-17T20:04:05.750Z,99495.17
2018-12-17T20:06:16.838Z,99497.30
2018-12-17T20:08:27.995Z,99498.20
2018-12-17T20:10:39.024Z,99497.75
2018-12-17T20:12:50.211Z,99500.81
2018-12-17T20:15:01.401Z,99493.94
2018-12-17T20:17:12.605Z,99499.13
2018-12-17T20:19:23.762Z,99506.86
2018-12-17T20:21:34.848Z,99501.31
2018-12-17T20:23:45.973Z,99509.88
2018-12-17T20:25:57.258Z,99512.50
2018-12-17T20:28:08.556Z,99511.61
2018-12-17T20:30:19.708Z,99514.13
2018-12-17T20:32:30.766Z,99511.02
2018-12-17T20:34:42.061Z,99507.11
2018-12-17T20:36:53.258Z,99508.89
2018-12-17T20:39:05.615Z,99514.50
2018-12-17T20:41:16.703Z,99521.42
2018-12-17T20:43:27.792Z,99517.50
2018-12-17T20:45:38.998Z,99519.64
2018-12-17T20:47:50.102Z,99521.82
2018-12-17T20:50:01.375Z,99526.09
2018-12-17T20:52:12.508Z,99532.52
2018-12-17T20:54:23.601Z,99539.80
2018-12-17T20:56:34.655Z,99537.63
2018-12-17T20:58:45.738Z,99543.27
2018-12-17T21:00:56.797Z,99542.42
2018-12-17T21:03:07.870Z,99540.30
2018-12-17T21:05:19.068Z,99547.58
2018-12-17T21:07:30.211Z,99549.08
2018-12-17T21:09:41.318Z,99554.23
2018-12-17T21:11:53.679Z,99554.23
2018-12-17T21:14:05.136Z,99556.45
2018-12-17T21:16:17.033Z,99558.23
2018-12-17T21:18:27.941Z,99557.44
2018-12-17T21:20:38.848Z,99563.03
2018-12-17T21:22:49.732Z,99562.19
2018-12-17T21:25:00.593Z,99558.33
2018-12-17T21:27:11.441Z,99560.95
2018-12-17T21:29:22.333Z,99559.22
2018-12-17T21:31:34.248Z,99556.64
2018-12-17T21:33:45.123Z,99555.75
2018-12-17T21:35:55.978Z,99554.47
2018-12-17T21:38:06.848Z,99557.05
2018-12-17T21:40:17.716Z,99556.64
2018-12-17T21:42:28.581Z,99553.26
2018-12-17T21:44:39.475Z,99558.81
2018-12-17T21:46:50.368Z,99561.34
2018-12-17T21:49:01.246Z,99565.25
2018-12-17T21:51:12.093Z,99567.42
2018-12-17T21:53:22.981Z,99560.99
2018-12-17T21:55:33.881Z,99565.34
2018-12-17T21:57:44.732Z,99559.75
2018-12-17T21:59:55.627Z,99561.03
2018-12-17T22:02:06.497Z,99564.86
2018-12-17T22:04:17.402Z,99567.43
2018-12-17T22:06:28.300Z,99566.55
2018-12-17T22:08:39.193Z,99575.20
2018-12-17T22:10:50.047Z,99573.02
2018-12-17T22:13:01.153Z,99571.78
2018-12-17T22:15:12.037Z,99576.48
2018-12-17T22:17:22.945Z,99583.41
2018-12-17T22:19:33.839Z,99579.11
2018-12-17T22:21:44.813Z,99576.13
2018-12-17T22:23:55.657Z,99579.98
2018-12-17T22:26:06.537Z,99582.17
2018-12-17T22:28:17.488Z,99578.39
2018-12-17T22:30:28.355Z,99584.39
2018-12-17T22:32:39.232Z,99579.23
2018-12-17T22:34:50.226Z,99587.84
2018-12-17T22:37:01.099Z,99586.11
2018-12-17T22:39:11.956Z,99577.51
2018-12-17T22:41:22.923Z,99586.11
2018-12-17T22:43:33.819Z,99581.36
2018-12-17T22:45:44.789Z,99575.86
2018-12-17T22:47:55.677Z,99579.64
2018-12-17T22:50:06.657Z,99581.89
2018-12-17T22:52:17.526Z,99584.02
2018-12-17T22:54:28.376Z,99581.86
2018-12-17T22:56:39.365Z,99584.42
2018-12-17T22:58:50.232Z,99578.88
2018-12-17T23:01:01.230Z,99585.31
2018-12-17T23:03:12.107Z,99583.09
2018-12-17T23:05:22.952Z,99583.91
2018-12-17T23:07:33.913Z,99588.69
2018-12-17T23:09:57.237Z,99582.25
2018-12-17T23:12:20.324Z,99587.81
2018-12-17T23:14:43.657Z,99585.63
2018-12-17T23:17:06.886Z,99582.20
2018-12-17T23:19:17.593Z,99581.41
2018-12-17T23:21:28.539Z,99583.95
2018-12-17T23:23:39.576Z,99577.95
2018-12-17T23:25:50.557Z,99573.20
2018-12-17T23:28:01.475Z,99583.02
2018-12-17T23:30:12.550Z,99576.98
2018-12-17T23:32:24.340Z,99573.52
2018-12-17T23:34:35.212Z,99575.24
2018-12-17T23:36:46.084Z,99572.67
2018-12-17T23:38:56.954Z,99569.30
2018-12-17T23:41:07.813Z,99571.50
2018-12-17T23:43:18.663Z,99575.01
2018-12-17T23:45:29.545Z,99569.06
2018-12-17T23:47:40.390Z,99566.93
2018-12-17T23:49:51.245Z,99566.97
2018-12-17T23:52:02.085Z,99569.59
2018-12-17T23:54:12.930Z,99560.22
2018-12-17T23:56:23.790Z,99556.84
2018-12-17T23:58:34.650Z,99558.61
